sensor_id;sensor_type;location;lat;lon;timestamp;P1;durP1;ratioP1;P2;durP2;ratioP2
75937;SDS011;64615;32.062;34.834;2023-12-04T00:00:12;10.20;;;4.68;;
75937;SDS011;64615;32.062;34.834;2023-12-04T00:02:39;9.98;;;3.83;;
75937;SDS011;64615;32.062;34.834;2023-12-04T00:05:05;11.43;;;4.38;;
75937;SDS011;64615;32.062;34.834;2023-12-04T00:07:31;11.77;;;4.22;;
75937;SDS011;64615;32.062;34.834;2023-12-04T00:09:57;10.18;;;4.60;;
75937;SDS011;64615;32.062;34.834;2023-12-04T00:12:23;11.43;;;4.45;;
75937;SDS011;64615;32.062;34.834;2023-12-04T00:14:48;9.23;;;4.60;;
75937;SDS011;64615;32.062;34.834;2023-12-04T00:17:14;9.27;;;4.45;;
75937;SDS011;64615;32.062;34.834;2023-12-04T00:19:39;11.80;;;4.63;;
75937;SDS011;64615;32.062;34.834;2023-12-04T00:22:05;9.02;;;4.47;;
75937;SDS011;64615;32.062;34.834;2023-12-04T00:24:30;10.63;;;4.50;;
75937;SDS011;64615;32.062;34.834;2023-12-04T00:26:56;11.77;;;4.15;;
75937;SDS011;64615;32.062;34.834;2023-12-04T00:29:22;8.95;;;4.10;;
75937;SDS011;64615;32.062;34.834;2023-12-04T00:31:47;10.77;;;4.40;;
75937;SDS011;64615;32.062;34.834;2023-12-04T00:34:13;10.07;;;4.20;;
75937;SDS011;64615;32.062;34.834;2023-12-04T00:36:38;9.13;;;4.10;;
75937;SDS011;64615;32.062;34.834;2023-12-04T00:39:04;7.05;;;3.50;;
75937;SDS011;64615;32.062;34.834;2023-12-04T00:41:30;10.18;;;4.38;;
75937;SDS011;64615;32.062;34.834;2023-12-04T00:43:56;8.98;;;4.22;;
75937;SDS011;64615;32.062;34.834;2023-12-04T00:46:22;12.10;;;4.50;;
75937;SDS011;64615;32.062;34.834;2023-12-04T00:48:48;12.98;;;4.78;;
75937;SDS011;64615;32.062;34.834;2023-12-04T00:51:13;7.60;;;4.13;;
75937;SDS011;64615;32.062;34.834;2023-12-04T00:53:39;9.48;;;4.38;;
75937;SDS011;64615;32.062;34.834;2023-12-04T00:56:05;11.45;;;3.90;;
75937;SDS011;64615;32.062;34.834;2023-12-04T00:58:31;9.18;;;4.30;;
75937;SDS011;64615;32.062;34.834;2023-12-04T01:00:57;9.27;;;3.67;;
75937;SDS011;64615;32.062;34.834;2023-12-04T01:03:22;11.23;;;3.75;;
75937;SDS011;64615;32.062;34.834;2023-12-04T01:05:48;11.23;;;4.43;;
75937;SDS011;64615;32.062;34.834;2023-12-04T01:08:13;9.57;;;4.03;;
75937;SDS011;64615;32.062;34.834;2023-12-04T01:10:39;8.93;;;3.97;;
75937;SDS011;64615;32.062;34.834;2023-12-04T01:13:05;10.88;;;4.18;;
75937;SDS011;64615;32.062;34.834;2023-12-04T01:15:30;10.60;;;4.30;;
75937;SDS011;64615;32.062;34.834;2023-12-04T01:17:56;12.45;;;4.13;;
75937;SDS011;64615;32.062;34.834;2023-12-04T01:20:22;8.30;;;3.75;;
75937;SDS011;64615;32.062;34.834;2023-12-04T01:22:48;7.63;;;3.90;;
75937;SDS011;64615;32.062;34.834;2023-12-04T01:25:13;9.65;;;3.90;;
75937;SDS011;64615;32.062;34.834;2023-12-04T01:27:39;10.18;;;4.05;;
75937;SDS011;64615;32.062;34.834;2023-12-04T01:30:05;9.85;;;3.78;;
75937;SDS011;64615;32.062;34.834;2023-12-04T01:32:33;11.68;;;4.22;;
75937;SDS011;64615;32.062;34.834;2023-12-04T01:34:59;9.13;;;4.25;;
75937;SDS011;64615;32.062;34.834;2023-12-04T01:37:25;7.60;;;3.38;;
75937;SDS011;64615;32.062;34.834;2023-12-04T01:39:51;10.23;;;4.07;;
75937;SDS011;64615;32.062;34.834;2023-12-04T01:42:16;9.48;;;3.97;;
75937;SDS011;64615;32.062;34.834;2023-12-04T01:44:42;9.05;;;4.00;;
75937;SDS011;64615;32.062;34.834;2023-12-04T01:47:08;8.30;;;3.92;;
75937;SDS011;64615;32.062;34.834;2023-12-04T01:49:34;10.27;;;4.25;;
75937;SDS011;64615;32.062;34.834;2023-12-04T01:51:59;8.10;;;3.50;;
75937;SDS011;64615;32.062;34.834;2023-12-04T01:54:25;8.48;;;4.10;;
75937;SDS011;64615;32.062;34.834;2023-12-04T01:56:51;10.32;;;4.05;;
75937;SDS011;64615;32.062;34.834;2023-12-04T01:59:17;7.60;;;4.05;;
75937;SDS011;64615;32.062;34.834;2023-12-04T02:01:43;8.05;;;4.03;;
75937;SDS011;64615;32.062;34.834;2023-12-04T02:04:09;8.82;;;4.03;;
75937;SDS011;64615;32.062;34.834;2023-12-04T02:06:34;9.43;;;3.83;;
75937;SDS011;64615;32.062;34.834;2023-12-04T02:09:01;9.60;;;3.90;;
75937;SDS011;64615;32.062;34.834;2023-12-04T02:11:27;7.30;;;3.50;;
75937;SDS011;64615;32.062;34.834;2023-12-04T02:13:52;9.88;;;3.83;;
75937;SDS011;64615;32.062;34.834;2023-12-04T02:16:18;8.10;;;3.58;;
75937;SDS011;64615;32.062;34.834;2023-12-04T02:18:45;8.90;;;4.03;;
75937;SDS011;64615;32.062;34.834;2023-12-04T02:21:11;9.85;;;4.28;;
75937;SDS011;64615;32.062;34.834;2023-12-04T02:23:37;9.25;;;4.07;;
75937;SDS011;64615;32.062;34.834;2023-12-04T02:26:03;8.40;;;3.60;;
75937;SDS011;64615;32.062;34.834;2023-12-04T02:28:35;8.35;;;3.55;;
75937;SDS011;64615;32.062;34.834;2023-12-04T02:31:03;10.73;;;4.13;;
75937;SDS011;64615;32.062;34.834;2023-12-04T02:33:30;7.75;;;3.58;;
75937;SDS011;64615;32.062;34.834;2023-12-04T02:35:58;9.23;;;3.88;;
75937;SDS011;64615;32.062;34.834;2023-12-04T02:38:26;10.27;;;3.70;;
75937;SDS011;64615;32.062;34.834;2023-12-04T02:40:52;10.15;;;4.13;;
75937;SDS011;64615;32.062;34.834;2023-12-04T02:43:18;9.05;;;4.13;;
75937;SDS011;64615;32.062;34.834;2023-12-04T02:45:43;7.30;;;3.58;;
75937;SDS011;64615;32.062;34.834;2023-12-04T02:48:09;9.57;;;3.55;;
75937;SDS011;64615;32.062;34.834;2023-12-04T02:50:35;8.73;;;3.70;;
75937;SDS011;64615;32.062;34.834;2023-12-04T02:53:01;9.38;;;3.88;;
75937;SDS011;64615;32.062;34.834;2023-12-04T02:55:26;9.23;;;3.97;;
75937;SDS011;64615;32.062;34.834;2023-12-04T02:57:53;10.75;;;3.72;;
75937;SDS011;64615;32.062;34.834;2023-12-04T03:00:18;9.32;;;3.80;;
75937;SDS011;64615;32.062;34.834;2023-12-04T03:02:44;9.23;;;3.83;;
75937;SDS011;64615;32.062;34.834;2023-12-04T03:05:10;10.35;;;4.07;;
75937;SDS011;64615;32.062;34.834;2023-12-04T03:07:35;8.32;;;3.33;;
75937;SDS011;64615;32.062;34.834;2023-12-04T03:10:01;8.57;;;4.32;;
75937;SDS011;64615;32.062;34.834;2023-12-04T03:12:26;9.43;;;4.00;;
75937;SDS011;64615;32.062;34.834;2023-12-04T03:14:52;9.85;;;4.20;;
75937;SDS011;64615;32.062;34.834;2023-12-04T03:17:18;9.93;;;3.60;;
75937;SDS011;64615;32.062;34.834;2023-12-04T03:19:44;8.27;;;3.67;;
75937;SDS011;64615;32.062;34.834;2023-12-04T03:22:09;8.77;;;3.72;;
75937;SDS011;64615;32.062;34.834;2023-12-04T03:24:35;12.00;;;4.50;;
75937;SDS011;64615;32.062;34.834;2023-12-04T03:27:00;7.75;;;3.60;;
75937;SDS011;64615;32.062;34.834;2023-12-04T03:29:27;10.18;;;4.10;;
75937;SDS011;64615;32.062;34.834;2023-12-04T03:31:52;10.13;;;4.15;;
75937;SDS011;64615;32.062;34.834;2023-12-04T03:34:18;8.05;;;4.00;;
75937;SDS011;64615;32.062;34.834;2023-12-04T03:36:43;11.15;;;3.70;;
75937;SDS011;64615;32.062;34.834;2023-12-04T03:39:09;12.68;;;3.95;;
75937;SDS011;64615;32.062;34.834;2023-12-04T03:41:35;11.32;;;3.92;;
75937;SDS011;64615;32.062;34.834;2023-12-04T03:44:00;9.82;;;4.25;;
75937;SDS011;64615;32.062;34.834;2023-12-04T03:46:26;8.30;;;3.85;;
75937;SDS011;64615;32.062;34.834;2023-12-04T03:48:51;9.10;;;4.25;;
75937;SDS011;64615;32.062;34.834;2023-12-04T03:51:17;10.20;;;4.57;;
75937;SDS011;64615;32.062;34.834;2023-12-04T03:53:42;9.20;;;4.05;;
75937;SDS011;64615;32.062;34.834;2023-12-04T03:56:08;10.23;;;3.83;;
75937;SDS011;64615;32.062;34.834;2023-12-04T03:58:35;8.63;;;4.32;;
75937;SDS011;64615;32.062;34.834;2023-12-04T04:01:02;9.90;;;4.53;;
75937;SDS011;64615;32.062;34.834;2023-12-04T04:03:28;10.48;;;3.92;;
75937;SDS011;64615;32.062;34.834;2023-12-04T04:05:53;11.65;;;4.13;;
75937;SDS011;64615;32.062;34.834;2023-12-04T04:08:19;10.98;;;4.47;;
75937;SDS011;64615;32.062;34.834;2023-12-04T04:10:45;9.50;;;4.05;;
75937;SDS011;64615;32.062;34.834;2023-12-04T04:13:10;10.20;;;4.03;;
75937;SDS011;64615;32.062;34.834;2023-12-04T04:15:36;13.73;;;4.85;;
75937;SDS011;64615;32.062;34.834;2023-12-04T04:18:02;10.27;;;4.10;;
75937;SDS011;64615;32.062;34.834;2023-12-04T04:20:27;17.35;;;4.55;;
75937;SDS011;64615;32.062;34.834;2023-12-04T04:22:53;19.40;;;4.28;;
75937;SDS011;64615;32.062;34.834;2023-12-04T04:25:19;30.20;;;4.82;;
75937;SDS011;64615;32.062;34.834;2023-12-04T04:27:47;24.00;;;5.13;;
75937;SDS011;64615;32.062;34.834;2023-12-04T04:30:12;22.52;;;5.55;;
75937;SDS011;64615;32.062;34.834;2023-12-04T04:32:38;19.92;;;5.80;;
75937;SDS011;64615;32.062;34.834;2023-12-04T04:35:04;33.97;;;5.90;;
75937;SDS011;64615;32.062;34.834;2023-12-04T04:37:30;24.73;;;6.35;;
75937;SDS011;64615;32.062;34.834;2023-12-04T04:39:55;26.52;;;5.55;;
75937;SDS011;64615;32.062;34.834;2023-12-04T04:42:22;31.45;;;6.13;;
75937;SDS011;64615;32.062;34.834;2023-12-04T04:44:48;23.10;;;5.50;;
75937;SDS011;64615;32.062;34.834;2023-12-04T04:47:13;28.92;;;5.65;;
75937;SDS011;64615;32.062;34.834;2023-12-04T04:49:39;29.45;;;6.43;;
75937;SDS011;64615;32.062;34.834;2023-12-04T04:52:07;31.55;;;6.28;;
75937;SDS011;64615;32.062;34.834;2023-12-04T04:54:32;33.88;;;6.38;;
75937;SDS011;64615;32.062;34.834;2023-12-04T04:56:58;25.83;;;5.88;;
75937;SDS011;64615;32.062;34.834;2023-12-04T04:59:23;22.35;;;5.60;;
75937;SDS011;64615;32.062;34.834;2023-12-04T05:01:49;28.60;;;7.28;;
75937;SDS011;64615;32.062;34.834;2023-12-04T05:04:15;45.83;;;21.98;;
75937;SDS011;64615;32.062;34.834;2023-12-04T05:06:40;35.80;;;11.98;;
75937;SDS011;64615;32.062;34.834;2023-12-04T05:09:06;59.70;;;29.25;;
75937;SDS011;64615;32.062;34.834;2023-12-04T05:11:31;42.75;;;23.20;;
75937;SDS011;64615;32.062;34.834;2023-12-04T05:13:57;40.40;;;18.58;;
75937;SDS011;64615;32.062;34.834;2023-12-04T05:16:23;31.20;;;15.48;;
75937;SDS011;64615;32.062;34.834;2023-12-04T05:18:48;36.10;;;16.27;;
75937;SDS011;64615;32.062;34.834;2023-12-04T05:21:14;36.15;;;15.65;;
75937;SDS011;64615;32.062;34.834;2023-12-04T05:23:39;34.75;;;13.68;;
75937;SDS011;64615;32.062;34.834;2023-12-04T05:26:06;33.75;;;13.75;;
75937;SDS011;64615;32.062;34.834;2023-12-04T05:28:32;39.65;;;12.55;;
75937;SDS011;64615;32.062;34.834;2023-12-04T05:30:58;51.35;;;14.05;;
75937;SDS011;64615;32.062;34.834;2023-12-04T05:33:24;103.53;;;50.97;;
75937;SDS011;64615;32.062;34.834;2023-12-04T05:35:49;101.18;;;57.67;;
75937;SDS011;64615;32.062;34.834;2023-12-04T05:38:17;92.18;;;39.05;;
75937;SDS011;64615;32.062;34.834;2023-12-04T05:40:43;84.20;;;38.00;;
75937;SDS011;64615;32.062;34.834;2023-12-04T05:43:08;76.10;;;30.70;;
75937;SDS011;64615;32.062;34.834;2023-12-04T05:45:34;53.17;;;25.08;;
75937;SDS011;64615;32.062;34.834;2023-12-04T05:47:59;57.33;;;24.77;;
75937;SDS011;64615;32.062;34.834;2023-12-04T05:50:25;56.90;;;20.65;;
75937;SDS011;64615;32.062;34.834;2023-12-04T05:52:51;43.33;;;16.42;;
75937;SDS011;64615;32.062;34.834;2023-12-04T05:55:17;52.22;;;14.50;;
75937;SDS011;64615;32.062;34.834;2023-12-04T05:57:43;32.08;;;11.95;;
75937;SDS011;64615;32.062;34.834;2023-12-04T06:00:09;48.10;;;11.73;;
75937;SDS011;64615;32.062;34.834;2023-12-04T06:02:42;37.20;;;10.20;;
75937;SDS011;64615;32.062;34.834;2023-12-04T06:05:08;39.47;;;10.45;;
75937;SDS011;64615;32.062;34.834;2023-12-04T06:07:34;36.05;;;9.65;;
75937;SDS011;64615;32.062;34.834;2023-12-04T06:10:00;37.38;;;8.98;;
75937;SDS011;64615;32.062;34.834;2023-12-04T06:12:26;35.40;;;8.38;;
75937;SDS011;64615;32.062;34.834;2023-12-04T06:14:52;33.78;;;9.20;;
75937;SDS011;64615;32.062;34.834;2023-12-04T06:17:17;29.17;;;8.27;;
75937;SDS011;64615;32.062;34.834;2023-12-04T06:19:43;35.58;;;8.30;;
75937;SDS011;64615;32.062;34.834;2023-12-04T06:22:09;35.15;;;7.90;;
75937;SDS011;64615;32.062;34.834;2023-12-04T06:24:35;38.67;;;8.43;;
75937;SDS011;64615;32.062;34.834;2023-12-04T06:27:00;33.83;;;7.53;;
75937;SDS011;64615;32.062;34.834;2023-12-04T06:29:27;35.10;;;9.15;;
75937;SDS011;64615;32.062;34.834;2023-12-04T06:31:53;37.17;;;9.85;;
75937;SDS011;64615;32.062;34.834;2023-12-04T06:34:19;40.28;;;9.57;;
75937;SDS011;64615;32.062;34.834;2023-12-04T06:36:44;34.33;;;9.43;;
75937;SDS011;64615;32.062;34.834;2023-12-04T06:39:10;43.10;;;10.35;;
75937;SDS011;64615;32.062;34.834;2023-12-04T06:41:38;41.80;;;11.00;;
75937;SDS011;64615;32.062;34.834;2023-12-04T06:44:05;49.95;;;11.15;;
75937;SDS011;64615;32.062;34.834;2023-12-04T06:46:31;47.60;;;11.18;;
75937;SDS011;64615;32.062;34.834;2023-12-04T06:49:01;51.90;;;10.07;;
75937;SDS011;64615;32.062;34.834;2023-12-04T06:51:31;44.85;;;8.95;;
75937;SDS011;64615;32.062;34.834;2023-12-04T06:53:58;29.50;;;8.80;;
75937;SDS011;64615;32.062;34.834;2023-12-04T06:56:23;37.70;;;8.73;;
75937;SDS011;64615;32.062;34.834;2023-12-04T06:58:49;42.92;;;9.35;;
75937;SDS011;64615;32.062;34.834;2023-12-04T07:01:14;37.97;;;8.20;;
75937;SDS011;64615;32.062;34.834;2023-12-04T07:03:40;36.65;;;8.85;;
75937;SDS011;64615;32.062;34.834;2023-12-04T07:06:06;26.67;;;8.20;;
75937;SDS011;64615;32.062;34.834;2023-12-04T07:08:32;28.80;;;8.88;;
75937;SDS011;64615;32.062;34.834;2023-12-04T07:10:57;38.80;;;8.50;;
75937;SDS011;64615;32.062;34.834;2023-12-04T07:13:23;35.95;;;8.15;;
75937;SDS011;64615;32.062;34.834;2023-12-04T07:15:48;42.13;;;8.85;;
75937;SDS011;64615;32.062;34.834;2023-12-04T07:18:14;35.08;;;8.88;;
75937;SDS011;64615;32.062;34.834;2023-12-04T07:20:40;31.15;;;8.95;;
75937;SDS011;64615;32.062;34.834;2023-12-04T07:23:05;30.75;;;8.50;;
75937;SDS011;64615;32.062;34.834;2023-12-04T07:25:31;28.13;;;8.20;;
75937;SDS011;64615;32.062;34.834;2023-12-04T07:27:56;24.60;;;8.93;;
75937;SDS011;64615;32.062;34.834;2023-12-04T07:30:25;34.17;;;8.75;;
75937;SDS011;64615;32.062;34.834;2023-12-04T07:32:51;26.90;;;9.40;;
75937;SDS011;64615;32.062;34.834;2023-12-04T07:35:16;27.52;;;7.32;;
75937;SDS011;64615;32.062;34.834;2023-12-04T07:37:43;26.33;;;8.05;;
75937;SDS011;64615;32.062;34.834;2023-12-04T07:40:09;22.52;;;8.23;;
75937;SDS011;64615;32.062;34.834;2023-12-04T07:42:36;24.80;;;7.85;;
75937;SDS011;64615;32.062;34.834;2023-12-04T07:45:02;26.15;;;7.10;;
75937;SDS011;64615;32.062;34.834;2023-12-04T07:47:28;23.70;;;7.75;;
75937;SDS011;64615;32.062;34.834;2023-12-04T07:49:54;29.33;;;7.57;;
75937;SDS011;64615;32.062;34.834;2023-12-04T07:52:20;33.25;;;7.57;;
75937;SDS011;64615;32.062;34.834;2023-12-04T07:54:45;24.45;;;7.75;;
75937;SDS011;64615;32.062;34.834;2023-12-04T07:57:11;27.10;;;7.68;;
75937;SDS011;64615;32.062;34.834;2023-12-04T07:59:36;26.63;;;8.02;;
75937;SDS011;64615;32.062;34.834;2023-12-04T08:02:02;20.98;;;7.25;;
75937;SDS011;64615;32.062;34.834;2023-12-04T08:04:28;23.92;;;6.85;;
75937;SDS011;64615;32.062;34.834;2023-12-04T08:06:54;20.92;;;6.93;;
75937;SDS011;64615;32.062;34.834;2023-12-04T08:09:19;25.23;;;6.60;;
75937;SDS011;64615;32.062;34.834;2023-12-04T08:11:46;19.65;;;7.30;;
75937;SDS011;64615;32.062;34.834;2023-12-04T08:14:11;22.42;;;7.20;;
75937;SDS011;64615;32.062;34.834;2023-12-04T08:16:37;26.55;;;7.57;;
75937;SDS011;64615;32.062;34.834;2023-12-04T08:19:03;28.70;;;7.32;;
75937;SDS011;64615;32.062;34.834;2023-12-04T08:21:28;22.52;;;7.65;;
75937;SDS011;64615;32.062;34.834;2023-12-04T08:23:54;27.85;;;7.97;;
75937;SDS011;64615;32.062;34.834;2023-12-04T08:26:23;24.30;;;6.93;;
75937;SDS011;64615;32.062;34.834;2023-12-04T08:28:50;29.80;;;7.82;;
75937;SDS011;64615;32.062;34.834;2023-12-04T08:31:16;28.92;;;6.97;;
75937;SDS011;64615;32.062;34.834;2023-12-04T08:33:42;22.85;;;7.20;;
75937;SDS011;64615;32.062;34.834;2023-12-04T08:36:09;31.98;;;8.23;;
75937;SDS011;64615;32.062;34.834;2023-12-04T08:38:35;24.08;;;7.78;;
75937;SDS011;64615;32.062;34.834;2023-12-04T08:41:01;27.30;;;7.20;;
75937;SDS011;64615;32.062;34.834;2023-12-04T08:43:28;24.60;;;7.38;;
75937;SDS011;64615;32.062;34.834;2023-12-04T08:45:54;27.42;;;7.65;;
75937;SDS011;64615;32.062;34.834;2023-12-04T08:48:20;26.08;;;8.00;;
75937;SDS011;64615;32.062;34.834;2023-12-04T08:50:45;26.13;;;7.63;;
75937;SDS011;64615;32.062;34.834;2023-12-04T08:53:12;26.95;;;7.13;;
75937;SDS011;64615;32.062;34.834;2023-12-04T08:55:38;29.38;;;7.50;;
75937;SDS011;64615;32.062;34.834;2023-12-04T08:58:03;34.90;;;8.52;;
75937;SDS011;64615;32.062;34.834;2023-12-04T09:00:30;32.22;;;7.82;;
75937;SDS011;64615;32.062;34.834;2023-12-04T09:02:55;34.35;;;8.82;;
75937;SDS011;64615;32.062;34.834;2023-12-04T09:05:21;30.00;;;7.90;;
75937;SDS011;64615;32.062;34.834;2023-12-04T09:07:47;31.40;;;8.52;;
75937;SDS011;64615;32.062;34.834;2023-12-04T09:10:12;28.38;;;7.80;;
75937;SDS011;64615;32.062;34.834;2023-12-04T09:12:39;22.30;;;8.48;;
75937;SDS011;64615;32.062;34.834;2023-12-04T09:15:05;24.35;;;8.15;;
75937;SDS011;64615;32.062;34.834;2023-12-04T09:17:31;31.05;;;8.32;;
75937;SDS011;64615;32.062;34.834;2023-12-04T09:19:57;26.48;;;8.10;;
75937;SDS011;64615;32.062;34.834;2023-12-04T09:22:23;26.70;;;8.15;;
75937;SDS011;64615;32.062;34.834;2023-12-04T09:24:48;37.67;;;8.30;;
75937;SDS011;64615;32.062;34.834;2023-12-04T09:27:15;23.45;;;7.95;;
75937;SDS011;64615;32.062;34.834;2023-12-04T09:29:42;30.75;;;8.38;;
75937;SDS011;64615;32.062;34.834;2023-12-04T09:32:08;22.77;;;7.68;;
75937;SDS011;64615;32.062;34.834;2023-12-04T09:34:34;30.95;;;7.38;;
75937;SDS011;64615;32.062;34.834;2023-12-04T09:37:00;22.33;;;8.23;;
75937;SDS011;64615;32.062;34.834;2023-12-04T09:39:26;26.88;;;7.72;;
75937;SDS011;64615;32.062;34.834;2023-12-04T09:41:52;22.15;;;7.78;;
75937;SDS011;64615;32.062;34.834;2023-12-04T09:44:18;23.20;;;7.18;;
75937;SDS011;64615;32.062;34.834;2023-12-04T09:46:44;22.50;;;7.30;;
75937;SDS011;64615;32.062;34.834;2023-12-04T09:49:10;20.15;;;7.30;;
75937;SDS011;64615;32.062;34.834;2023-12-04T09:51:37;24.10;;;7.60;;
75937;SDS011;64615;32.062;34.834;2023-12-04T09:54:03;24.77;;;7.80;;
75937;SDS011;64615;32.062;34.834;2023-12-04T09:56:29;24.20;;;7.65;;
75937;SDS011;64615;32.062;34.834;2023-12-04T09:59:00;22.58;;;7.72;;
75937;SDS011;64615;32.062;34.834;2023-12-04T10:01:28;16.17;;;6.40;;
75937;SDS011;64615;32.062;34.834;2023-12-04T10:03:56;17.23;;;6.63;;
75937;SDS011;64615;32.062;34.834;2023-12-04T10:08:51;21.80;;;6.28;;
75937;SDS011;64615;32.062;34.834;2023-12-04T10:11:17;20.60;;;6.43;;
75937;SDS011;64615;32.062;34.834;2023-12-04T10:13:42;21.50;;;6.80;;
75937;SDS011;64615;32.062;34.834;2023-12-04T10:16:08;21.58;;;6.70;;
75937;SDS011;64615;32.062;34.834;2023-12-04T10:18:34;19.85;;;6.68;;
75937;SDS011;64615;32.062;34.834;2023-12-04T10:21:00;17.15;;;6.05;;
75937;SDS011;64615;32.062;34.834;2023-12-04T10:23:37;22.35;;;6.28;;
75937;SDS011;64615;32.062;34.834;2023-12-04T10:26:04;16.98;;;6.10;;
75937;SDS011;64615;32.062;34.834;2023-12-04T10:28:30;18.27;;;6.80;;
75937;SDS011;64615;32.062;34.834;2023-12-04T10:30:56;17.15;;;6.30;;
75937;SDS011;64615;32.062;34.834;2023-12-04T10:33:21;24.83;;;6.13;;
75937;SDS011;64615;32.062;34.834;2023-12-04T10:35:51;16.38;;;5.72;;
75937;SDS011;64615;32.062;34.834;2023-12-04T10:38:16;18.60;;;6.45;;
75937;SDS011;64615;32.062;34.834;2023-12-04T10:40:43;19.48;;;6.32;;
75937;SDS011;64615;32.062;34.834;2023-12-04T10:43:09;20.88;;;5.72;;
75937;SDS011;64615;32.062;34.834;2023-12-04T10:45:37;16.35;;;6.22;;
75937;SDS011;64615;32.062;34.834;2023-12-04T10:48:04;15.90;;;6.47;;
75937;SDS011;64615;32.062;34.834;2023-12-04T10:50:40;20.10;;;6.00;;
75937;SDS011;64615;32.062;34.834;2023-12-04T10:53:07;13.88;;;6.10;;
75937;SDS011;64615;32.062;34.834;2023-12-04T10:55:34;15.65;;;5.90;;
75937;SDS011;64615;32.062;34.834;2023-12-04T10:58:01;17.08;;;6.03;;
75937;SDS011;64615;32.062;34.834;2023-12-04T11:00:32;21.00;;;5.88;;
75937;SDS011;64615;32.062;34.834;2023-12-04T11:03:02;21.27;;;6.53;;
75937;SDS011;64615;32.062;34.834;2023-12-04T11:05:31;22.33;;;6.13;;
75937;SDS011;64615;32.062;34.834;2023-12-04T11:08:02;23.65;;;6.70;;
75937;SDS011;64615;32.062;34.834;2023-12-04T11:10:30;21.70;;;6.90;;
75937;SDS011;64615;32.062;34.834;2023-12-04T11:13:15;30.38;;;6.50;;
75937;SDS011;64615;32.062;34.834;2023-12-04T11:15:47;21.95;;;6.47;;
75937;SDS011;64615;32.062;34.834;2023-12-04T11:18:15;26.25;;;7.53;;
75937;SDS011;64615;32.062;34.834;2023-12-04T11:20:54;24.63;;;7.57;;
75937;SDS011;64615;32.062;34.834;2023-12-04T11:23:24;24.38;;;6.93;;
75937;SDS011;64615;32.062;34.834;2023-12-04T11:25:50;23.73;;;7.20;;
75937;SDS011;64615;32.062;34.834;2023-12-04T11:28:18;24.25;;;6.30;;
75937;SDS011;64615;32.062;34.834;2023-12-04T11:30:45;31.25;;;7.10;;
75937;SDS011;64615;32.062;34.834;2023-12-04T11:33:11;26.23;;;6.72;;
75937;SDS011;64615;32.062;34.834;2023-12-04T11:35:38;28.02;;;7.07;;
75937;SDS011;64615;32.062;34.834;2023-12-04T11:38:06;35.70;;;6.35;;
75937;SDS011;64615;32.062;34.834;2023-12-04T11:40:34;31.95;;;7.63;;
75937;SDS011;64615;32.062;34.834;2023-12-04T11:43:04;32.42;;;7.15;;
75937;SDS011;64615;32.062;34.834;2023-12-04T11:45:47;24.15;;;6.43;;
75937;SDS011;64615;32.062;34.834;2023-12-04T11:48:14;28.10;;;6.95;;
75937;SDS011;64615;32.062;34.834;2023-12-04T11:50:40;31.38;;;6.90;;
75937;SDS011;64615;32.062;34.834;2023-12-04T11:53:05;23.10;;;6.65;;
75937;SDS011;64615;32.062;34.834;2023-12-04T11:55:31;29.70;;;6.32;;
75937;SDS011;64615;32.062;34.834;2023-12-04T11:58:00;28.77;;;6.85;;
75937;SDS011;64615;32.062;34.834;2023-12-04T12:00:35;25.65;;;6.28;;
75937;SDS011;64615;32.062;34.834;2023-12-04T12:03:02;25.08;;;6.97;;
75937;SDS011;64615;32.062;34.834;2023-12-04T12:05:31;18.60;;;6.60;;
75937;SDS011;64615;32.062;34.834;2023-12-04T12:08:07;26.20;;;7.20;;
75937;SDS011;64615;32.062;34.834;2023-12-04T12:10:34;26.48;;;6.95;;
75937;SDS011;64615;32.062;34.834;2023-12-04T12:13:00;23.67;;;6.63;;
75937;SDS011;64615;32.062;34.834;2023-12-04T12:15:26;18.35;;;6.05;;
75937;SDS011;64615;32.062;34.834;2023-12-04T12:17:52;18.70;;;6.88;;
75937;SDS011;64615;32.062;34.834;2023-12-04T12:20:18;20.80;;;6.93;;
75937;SDS011;64615;32.062;34.834;2023-12-04T12:22:45;21.33;;;6.32;;
75937;SDS011;64615;32.062;34.834;2023-12-04T12:25:13;19.23;;;6.65;;
75937;SDS011;64615;32.062;34.834;2023-12-04T12:27:39;22.52;;;6.13;;
75937;SDS011;64615;32.062;34.834;2023-12-04T12:30:05;19.08;;;6.20;;
75937;SDS011;64615;32.062;34.834;2023-12-04T12:32:35;16.58;;;6.00;;
75937;SDS011;64615;32.062;34.834;2023-12-04T12:35:01;21.40;;;6.25;;
75937;SDS011;64615;32.062;34.834;2023-12-04T12:37:27;24.15;;;6.07;;
75937;SDS011;64615;32.062;34.834;2023-12-04T12:39:53;18.50;;;6.07;;
75937;SDS011;64615;32.062;34.834;2023-12-04T12:42:25;19.38;;;6.07;;
75937;SDS011;64615;32.062;34.834;2023-12-04T12:44:55;17.38;;;5.60;;
75937;SDS011;64615;32.062;34.834;2023-12-04T12:47:21;17.45;;;5.90;;
75937;SDS011;64615;32.062;34.834;2023-12-04T12:49:47;17.13;;;6.03;;
75937;SDS011;64615;32.062;34.834;2023-12-04T12:52:13;17.42;;;6.15;;
75937;SDS011;64615;32.062;34.834;2023-12-04T12:54:40;26.23;;;6.53;;
75937;SDS011;64615;32.062;34.834;2023-12-04T12:57:06;17.15;;;6.32;;
75937;SDS011;64615;32.062;34.834;2023-12-04T12:59:33;20.08;;;6.50;;
75937;SDS011;64615;32.062;34.834;2023-12-04T13:01:59;14.20;;;5.55;;
75937;SDS011;64615;32.062;34.834;2023-12-04T13:04:25;17.58;;;6.00;;
75937;SDS011;64615;32.062;34.834;2023-12-04T13:06:52;20.13;;;6.40;;
75937;SDS011;64615;32.062;34.834;2023-12-04T13:09:18;19.02;;;6.10;;
75937;SDS011;64615;32.062;34.834;2023-12-04T13:11:44;20.77;;;6.60;;
75937;SDS011;64615;32.062;34.834;2023-12-04T13:14:10;24.35;;;6.10;;
75937;SDS011;64615;32.062;34.834;2023-12-04T13:16:36;18.67;;;6.03;;
75937;SDS011;64615;32.062;34.834;2023-12-04T13:19:02;21.05;;;6.70;;
75937;SDS011;64615;32.062;34.834;2023-12-04T13:21:27;15.25;;;5.85;;
75937;SDS011;64615;32.062;34.834;2023-12-04T13:23:54;14.75;;;6.28;;
75937;SDS011;64615;32.062;34.834;2023-12-04T13:26:20;15.55;;;5.95;;
75937;SDS011;64615;32.062;34.834;2023-12-04T13:28:46;17.75;;;6.28;;
75937;SDS011;64615;32.062;34.834;2023-12-04T13:31:12;18.58;;;5.97;;
75937;SDS011;64615;32.062;34.834;2023-12-04T13:33:38;16.70;;;5.95;;
75937;SDS011;64615;32.062;34.834;2023-12-04T13:36:03;14.43;;;5.57;;
75937;SDS011;64615;32.062;34.834;2023-12-04T13:38:30;17.60;;;5.10;;
75937;SDS011;64615;32.062;34.834;2023-12-04T13:40:55;15.10;;;5.63;;
75937;SDS011;64615;32.062;34.834;2023-12-04T13:43:27;24.92;;;6.65;;
75937;SDS011;64615;32.062;34.834;2023-12-04T13:46:12;25.75;;;6.72;;
75937;SDS011;64615;32.062;34.834;2023-12-04T13:48:38;34.67;;;6.55;;
75937;SDS011;64615;32.062;34.834;2023-12-04T13:53:34;23.48;;;5.93;;
75937;SDS011;64615;32.062;34.834;2023-12-04T13:56:00;26.35;;;6.45;;
75937;SDS011;64615;32.062;34.834;2023-12-04T13:58:46;25.20;;;6.68;;
75937;SDS011;64615;32.062;34.834;2023-12-04T14:01:18;28.20;;;7.40;;
75937;SDS011;64615;32.062;34.834;2023-12-04T14:03:48;26.05;;;6.20;;
75937;SDS011;64615;32.062;34.834;2023-12-04T14:06:13;25.08;;;7.60;;
75937;SDS011;64615;32.062;34.834;2023-12-04T14:08:42;28.45;;;8.05;;
75937;SDS011;64615;32.062;34.834;2023-12-04T14:11:08;21.05;;;6.65;;
75937;SDS011;64615;32.062;34.834;2023-12-04T14:16:01;25.10;;;7.50;;
75937;SDS011;64615;32.062;34.834;2023-12-04T14:18:28;23.02;;;6.40;;
75937;SDS011;64615;32.062;34.834;2023-12-04T14:20:55;18.00;;;6.63;;
75937;SDS011;64615;32.062;34.834;2023-12-04T14:23:22;25.17;;;7.40;;
75937;SDS011;64615;32.062;34.834;2023-12-04T14:25:47;21.98;;;7.25;;